sensor_id;sensor_type;location;lat;lon;timestamp;P1;durP1;ratioP1;P2;durP2;ratioP2
78324;SDS011;67584;51.400;6.692;2023-07-31T00:02:06;7.38;;;4.03;;
78324;SDS011;67584;51.400;6.692;2023-07-31T00:04:31;5.40;;;2.65;;
78324;SDS011;67584;51.400;6.692;2023-07-31T00:06:57;6.28;;;3.58;;
78324;SDS011;67584;51.400;6.692;2023-07-31T00:09:22;5.90;;;3.38;;
78324;SDS011;67584;51.400;6.692;2023-07-31T00:11:48;5.25;;;2.95;;
78324;SDS011;67584;51.400;6.692;2023-07-31T00:14:14;4.75;;;2.90;;
78324;SDS011;67584;51.400;6.692;2023-07-31T00:16:39;8.13;;;4.13;;
78324;SDS011;67584;51.400;6.692;2023-07-31T00:19:05;16.10;;;4.47;;
78324;SDS011;67584;51.400;6.692;2023-07-31T00:21:30;7.32;;;3.40;;
78324;SDS011;67584;51.400;6.692;2023-07-31T00:23:56;6.25;;;3.63;;
78324;SDS011;67584;51.400;6.692;2023-07-31T00:26:22;9.98;;;3.88;;
78324;SDS011;67584;51.400;6.692;2023-07-31T00:28:47;8.02;;;3.45;;
78324;SDS011;67584;51.400;6.692;2023-07-31T00:31:13;6.53;;;3.40;;
78324;SDS011;67584;51.400;6.692;2023-07-31T00:33:39;9.23;;;3.80;;
78324;SDS011;67584;51.400;6.692;2023-07-31T00:36:04;7.65;;;3.45;;
78324;SDS011;67584;51.400;6.692;2023-07-31T00:38:30;6.78;;;3.40;;
78324;SDS011;67584;51.400;6.692;2023-07-31T00:40:55;8.15;;;3.13;;
78324;SDS011;67584;51.400;6.692;2023-07-31T00:43:21;8.85;;;3.65;;
78324;SDS011;67584;51.400;6.692;2023-07-31T00:45:47;10.82;;;3.67;;
78324;SDS011;67584;51.400;6.692;2023-07-31T00:48:13;11.25;;;3.50;;
78324;SDS011;67584;51.400;6.692;2023-07-31T00:50:39;7.93;;;3.30;;
78324;SDS011;67584;51.400;6.692;2023-07-31T00:53:05;7.90;;;3.42;;
78324;SDS011;67584;51.400;6.692;2023-07-31T00:55:32;6.57;;;3.00;;
78324;SDS011;67584;51.400;6.692;2023-07-31T00:57:59;9.13;;;3.72;;
78324;SDS011;67584;51.400;6.692;2023-07-31T01:00:24;7.78;;;3.35;;
78324;SDS011;67584;51.400;6.692;2023-07-31T01:02:50;5.18;;;2.95;;
78324;SDS011;67584;51.400;6.692;2023-07-31T01:05:17;5.65;;;3.10;;
78324;SDS011;67584;51.400;6.692;2023-07-31T01:08:03;5.30;;;2.95;;
78324;SDS011;67584;51.400;6.692;2023-07-31T01:10:41;7.60;;;3.20;;
78324;SDS011;67584;51.400;6.692;2023-07-31T01:13:16;6.82;;;3.60;;
78324;SDS011;67584;51.400;6.692;2023-07-31T01:15:43;5.78;;;3.35;;
78324;SDS011;67584;51.400;6.692;2023-07-31T01:18:09;5.72;;;2.78;;
78324;SDS011;67584;51.400;6.692;2023-07-31T01:20:35;9.25;;;3.45;;
78324;SDS011;67584;51.400;6.692;2023-07-31T01:23:08;9.23;;;3.63;;
78324;SDS011;67584;51.400;6.692;2023-07-31T01:25:59;5.47;;;2.72;;
78324;SDS011;67584;51.400;6.692;2023-07-31T01:31:23;5.35;;;2.75;;
78324;SDS011;67584;51.400;6.692;2023-07-31T01:33:50;8.73;;;3.63;;
78324;SDS011;67584;51.400;6.692;2023-07-31T01:36:19;8.38;;;2.95;;
78324;SDS011;67584;51.400;6.692;2023-07-31T01:38:46;5.57;;;3.08;;
78324;SDS011;67584;51.400;6.692;2023-07-31T01:41:11;10.55;;;4.15;;
78324;SDS011;67584;51.400;6.692;2023-07-31T01:43:37;7.78;;;2.90;;
78324;SDS011;67584;51.400;6.692;2023-07-31T01:46:04;6.72;;;3.35;;
78324;SDS011;67584;51.400;6.692;2023-07-31T01:48:29;10.40;;;3.20;;
78324;SDS011;67584;51.400;6.692;2023-07-31T01:51:00;6.30;;;2.92;;
78324;SDS011;67584;51.400;6.692;2023-07-31T01:53:27;5.10;;;3.13;;
78324;SDS011;67584;51.400;6.692;2023-07-31T01:55:52;9.07;;;3.08;;
78324;SDS011;67584;51.400;6.692;2023-07-31T01:58:18;7.13;;;3.40;;
78324;SDS011;67584;51.400;6.692;2023-07-31T02:00:44;9.07;;;3.80;;
78324;SDS011;67584;51.400;6.692;2023-07-31T02:03:09;6.20;;;3.65;;
78324;SDS011;67584;51.400;6.692;2023-07-31T02:05:35;5.38;;;2.97;;
78324;SDS011;67584;51.400;6.692;2023-07-31T02:08:00;7.25;;;4.28;;
78324;SDS011;67584;51.400;6.692;2023-07-31T02:10:26;8.45;;;3.35;;
78324;SDS011;67584;51.400;6.692;2023-07-31T02:12:52;11.20;;;3.40;;
78324;SDS011;67584;51.400;6.692;2023-07-31T02:15:17;8.27;;;3.50;;
78324;SDS011;67584;51.400;6.692;2023-07-31T02:17:43;9.75;;;3.35;;
78324;SDS011;67584;51.400;6.692;2023-07-31T02:20:09;6.90;;;3.88;;
78324;SDS011;67584;51.400;6.692;2023-07-31T02:22:35;9.40;;;4.18;;
78324;SDS011;67584;51.400;6.692;2023-07-31T02:25:01;11.93;;;3.78;;
78324;SDS011;67584;51.400;6.692;2023-07-31T02:27:27;9.85;;;3.63;;
78324;SDS011;67584;51.400;6.692;2023-07-31T02:29:53;9.90;;;4.13;;
78324;SDS011;67584;51.400;6.692;2023-07-31T02:32:19;7.00;;;3.10;;
78324;SDS011;67584;51.400;6.692;2023-07-31T02:34:45;5.78;;;3.38;;
78324;SDS011;67584;51.400;6.692;2023-07-31T02:37:11;7.68;;;3.35;;
78324;SDS011;67584;51.400;6.692;2023-07-31T02:39:36;8.55;;;3.20;;
78324;SDS011;67584;51.400;6.692;2023-07-31T02:42:02;8.90;;;3.53;;
78324;SDS011;67584;51.400;6.692;2023-07-31T02:44:28;5.88;;;3.40;;
78324;SDS011;67584;51.400;6.692;2023-07-31T02:46:53;4.55;;;3.22;;
78324;SDS011;67584;51.400;6.692;2023-07-31T02:49:19;9.13;;;3.55;;
78324;SDS011;67584;51.400;6.692;2023-07-31T02:51:45;7.28;;;3.40;;
78324;SDS011;67584;51.400;6.692;2023-07-31T02:54:11;8.75;;;3.42;;
78324;SDS011;67584;51.400;6.692;2023-07-31T02:56:37;6.13;;;3.42;;
78324;SDS011;67584;51.400;6.692;2023-07-31T02:59:02;8.45;;;3.85;;
78324;SDS011;67584;51.400;6.692;2023-07-31T03:01:28;8.45;;;3.70;;
78324;SDS011;67584;51.400;6.692;2023-07-31T03:03:53;6.75;;;3.30;;
78324;SDS011;67584;51.400;6.692;2023-07-31T03:06:19;8.32;;;3.80;;
78324;SDS011;67584;51.400;6.692;2023-07-31T03:08:45;8.35;;;3.92;;
78324;SDS011;67584;51.400;6.692;2023-07-31T03:11:10;10.82;;;3.00;;
78324;SDS011;67584;51.400;6.692;2023-07-31T03:13:36;9.43;;;4.07;;
78324;SDS011;67584;51.400;6.692;2023-07-31T03:16:02;9.07;;;3.00;;
78324;SDS011;67584;51.400;6.692;2023-07-31T03:18:27;8.13;;;3.58;;
78324;SDS011;67584;51.400;6.692;2023-07-31T03:20:53;9.57;;;3.33;;
78324;SDS011;67584;51.400;6.692;2023-07-31T03:23:18;6.90;;;3.30;;
78324;SDS011;67584;51.400;6.692;2023-07-31T03:28:27;6.85;;;3.60;;
78324;SDS011;67584;51.400;6.692;2023-07-31T03:30:52;7.97;;;3.97;;
78324;SDS011;67584;51.400;6.692;2023-07-31T03:33:18;7.53;;;3.15;;
78324;SDS011;67584;51.400;6.692;2023-07-31T03:35:44;9.15;;;3.40;;
78324;SDS011;67584;51.400;6.692;2023-07-31T03:38:10;10.00;;;3.60;;
78324;SDS011;67584;51.400;6.692;2023-07-31T03:40:36;7.93;;;3.58;;
78324;SDS011;67584;51.400;6.692;2023-07-31T03:43:02;5.78;;;2.75;;
78324;SDS011;67584;51.400;6.692;2023-07-31T03:45:27;9.88;;;3.63;;
78324;SDS011;67584;51.400;6.692;2023-07-31T03:47:53;6.75;;;3.08;;
78324;SDS011;67584;51.400;6.692;2023-07-31T03:50:19;7.75;;;3.25;;
78324;SDS011;67584;51.400;6.692;2023-07-31T03:52:46;8.65;;;3.22;;
78324;SDS011;67584;51.400;6.692;2023-07-31T03:55:12;6.40;;;2.92;;
78324;SDS011;67584;51.400;6.692;2023-07-31T03:57:37;7.00;;;3.63;;
78324;SDS011;67584;51.400;6.692;2023-07-31T04:00:03;9.52;;;3.47;;
78324;SDS011;67584;51.400;6.692;2023-07-31T04:02:37;7.70;;;3.30;;
78324;SDS011;67584;51.400;6.692;2023-07-31T04:05:03;8.77;;;3.60;;
78324;SDS011;67584;51.400;6.692;2023-07-31T04:07:28;9.40;;;3.28;;
78324;SDS011;67584;51.400;6.692;2023-07-31T04:09:54;6.95;;;3.40;;
78324;SDS011;67584;51.400;6.692;2023-07-31T04:12:20;11.52;;;3.90;;
78324;SDS011;67584;51.400;6.692;2023-07-31T04:14:45;7.47;;;3.60;;
78324;SDS011;67584;51.400;6.692;2023-07-31T04:17:11;15.00;;;3.33;;
78324;SDS011;67584;51.400;6.692;2023-07-31T04:19:37;9.75;;;3.28;;
78324;SDS011;67584;51.400;6.692;2023-07-31T04:22:03;4.18;;;2.72;;
78324;SDS011;67584;51.400;6.692;2023-07-31T04:24:29;8.35;;;3.80;;
78324;SDS011;67584;51.400;6.692;2023-07-31T04:26:54;10.18;;;4.00;;
78324;SDS011;67584;51.400;6.692;2023-07-31T04:29:20;11.75;;;4.15;;
78324;SDS011;67584;51.400;6.692;2023-07-31T04:31:47;8.65;;;4.25;;
78324;SDS011;67584;51.400;6.692;2023-07-31T04:34:13;9.70;;;3.50;;
78324;SDS011;67584;51.400;6.692;2023-07-31T04:36:39;9.90;;;4.05;;
78324;SDS011;67584;51.400;6.692;2023-07-31T04:39:05;7.93;;;4.20;;
78324;SDS011;67584;51.400;6.692;2023-07-31T04:41:30;7.90;;;3.78;;
78324;SDS011;67584;51.400;6.692;2023-07-31T04:43:56;7.57;;;3.35;;
78324;SDS011;67584;51.400;6.692;2023-07-31T04:46:22;6.97;;;3.45;;
78324;SDS011;67584;51.400;6.692;2023-07-31T04:48:47;8.25;;;4.20;;
78324;SDS011;67584;51.400;6.692;2023-07-31T04:51:13;7.28;;;3.95;;
78324;SDS011;67584;51.400;6.692;2023-07-31T04:53:39;7.10;;;3.67;;
78324;SDS011;67584;51.400;6.692;2023-07-31T04:56:04;8.07;;;4.22;;
78324;SDS011;67584;51.400;6.692;2023-07-31T04:58:30;10.32;;;4.90;;
78324;SDS011;67584;51.400;6.692;2023-07-31T05:00:56;6.28;;;3.97;;
78324;SDS011;67584;51.400;6.692;2023-07-31T05:03:21;8.82;;;3.47;;
78324;SDS011;67584;51.400;6.692;2023-07-31T05:05:47;7.57;;;3.97;;
78324;SDS011;67584;51.400;6.692;2023-07-31T05:08:13;6.60;;;3.67;;
78324;SDS011;67584;51.400;6.692;2023-07-31T05:10:39;9.48;;;3.75;;
78324;SDS011;67584;51.400;6.692;2023-07-31T05:13:04;6.82;;;3.50;;
78324;SDS011;67584;51.400;6.692;2023-07-31T05:15:30;7.85;;;3.75;;
78324;SDS011;67584;51.400;6.692;2023-07-31T05:17:56;7.75;;;3.80;;
78324;SDS011;67584;51.400;6.692;2023-07-31T05:20:22;6.55;;;3.60;;
78324;SDS011;67584;51.400;6.692;2023-07-31T05:22:47;4.68;;;3.40;;
78324;SDS011;67584;51.400;6.692;2023-07-31T05:25:13;6.53;;;3.90;;
78324;SDS011;67584;51.400;6.692;2023-07-31T05:27:39;6.78;;;3.72;;
78324;SDS011;67584;51.400;6.692;2023-07-31T05:30:05;7.75;;;4.07;;
78324;SDS011;67584;51.400;6.692;2023-07-31T05:32:31;6.20;;;3.35;;
78324;SDS011;67584;51.400;6.692;2023-07-31T05:34:57;7.25;;;3.70;;
78324;SDS011;67584;51.400;6.692;2023-07-31T05:37:22;6.20;;;3.83;;
78324;SDS011;67584;51.400;6.692;2023-07-31T05:39:48;9.05;;;4.50;;
78324;SDS011;67584;51.400;6.692;2023-07-31T05:42:14;9.18;;;3.88;;
78324;SDS011;67584;51.400;6.692;2023-07-31T05:44:39;5.20;;;3.35;;
78324;SDS011;67584;51.400;6.692;2023-07-31T05:47:05;7.50;;;3.63;;
78324;SDS011;67584;51.400;6.692;2023-07-31T05:49:31;7.07;;;3.92;;
78324;SDS011;67584;51.400;6.692;2023-07-31T05:51:56;5.90;;;3.92;;
78324;SDS011;67584;51.400;6.692;2023-07-31T05:54:22;7.05;;;3.15;;
78324;SDS011;67584;51.400;6.692;2023-07-31T05:56:48;6.28;;;4.03;;
78324;SDS011;67584;51.400;6.692;2023-07-31T05:59:13;6.47;;;3.83;;
78324;SDS011;67584;51.400;6.692;2023-07-31T06:01:39;6.65;;;4.05;;
78324;SDS011;67584;51.400;6.692;2023-07-31T06:04:05;7.35;;;3.78;;
78324;SDS011;67584;51.400;6.692;2023-07-31T06:06:30;5.40;;;3.70;;
78324;SDS011;67584;51.400;6.692;2023-07-31T06:08:56;7.15;;;3.85;;
78324;SDS011;67584;51.400;6.692;2023-07-31T06:11:22;7.05;;;3.60;;
78324;SDS011;67584;51.400;6.692;2023-07-31T06:13:48;7.63;;;3.90;;
78324;SDS011;67584;51.400;6.692;2023-07-31T06:16:15;5.72;;;4.22;;
78324;SDS011;67584;51.400;6.692;2023-07-31T06:18:41;7.65;;;3.80;;
78324;SDS011;67584;51.400;6.692;2023-07-31T06:21:07;5.60;;;3.97;;
78324;SDS011;67584;51.400;6.692;2023-07-31T06:23:33;6.82;;;3.67;;
78324;SDS011;67584;51.400;6.692;2023-07-31T06:25:58;6.28;;;4.28;;
78324;SDS011;67584;51.400;6.692;2023-07-31T06:28:28;7.50;;;4.43;;
78324;SDS011;67584;51.400;6.692;2023-07-31T06:30:54;9.32;;;3.88;;
78324;SDS011;67584;51.400;6.692;2023-07-31T06:33:20;7.00;;;3.63;;
78324;SDS011;67584;51.400;6.692;2023-07-31T06:35:46;8.40;;;4.22;;
78324;SDS011;67584;51.400;6.692;2023-07-31T06:38:11;4.38;;;3.13;;
78324;SDS011;67584;51.400;6.692;2023-07-31T06:40:37;7.75;;;4.45;;
78324;SDS011;67584;51.400;6.692;2023-07-31T06:43:03;6.10;;;3.55;;
78324;SDS011;67584;51.400;6.692;2023-07-31T06:45:35;4.80;;;3.40;;
78324;SDS011;67584;51.400;6.692;2023-07-31T06:48:02;5.60;;;3.45;;
78324;SDS011;67584;51.400;6.692;2023-07-31T06:50:29;7.20;;;3.70;;
78324;SDS011;67584;51.400;6.692;2023-07-31T06:52:55;6.25;;;4.03;;
78324;SDS011;67584;51.400;6.692;2023-07-31T06:55:20;7.10;;;3.70;;
78324;SDS011;67584;51.400;6.692;2023-07-31T06:57:47;5.78;;;3.65;;
78324;SDS011;67584;51.400;6.692;2023-07-31T07:00:14;7.60;;;3.58;;
78324;SDS011;67584;51.400;6.692;2023-07-31T07:02:41;6.35;;;4.28;;
78324;SDS011;67584;51.400;6.692;2023-07-31T07:05:07;6.53;;;3.90;;
78324;SDS011;67584;51.400;6.692;2023-07-31T07:07:33;6.13;;;3.83;;
78324;SDS011;67584;51.400;6.692;2023-07-31T07:09:59;6.93;;;3.55;;
78324;SDS011;67584;51.400;6.692;2023-07-31T07:12:25;10.45;;;4.60;;
78324;SDS011;67584;51.400;6.692;2023-07-31T07:14:51;6.50;;;4.13;;
78324;SDS011;67584;51.400;6.692;2023-07-31T07:17:18;5.40;;;3.80;;
78324;SDS011;67584;51.400;6.692;2023-07-31T07:19:44;4.30;;;3.33;;
78324;SDS011;67584;51.400;6.692;2023-07-31T07:22:11;5.90;;;4.30;;
78324;SDS011;67584;51.400;6.692;2023-07-31T07:24:36;7.50;;;4.47;;
78324;SDS011;67584;51.400;6.692;2023-07-31T07:27:02;7.60;;;3.42;;
78324;SDS011;67584;51.400;6.692;2023-07-31T07:29:28;4.63;;;3.17;;
78324;SDS011;67584;51.400;6.692;2023-07-31T07:31:55;9.00;;;4.50;;
78324;SDS011;67584;51.400;6.692;2023-07-31T07:34:22;8.02;;;3.95;;
78324;SDS011;67584;51.400;6.692;2023-07-31T07:36:49;7.55;;;4.03;;
78324;SDS011;67584;51.400;6.692;2023-07-31T07:39:14;8.70;;;4.43;;
78324;SDS011;67584;51.400;6.692;2023-07-31T07:41:40;7.25;;;4.72;;
78324;SDS011;67584;51.400;6.692;2023-07-31T07:44:07;5.72;;;3.88;;
78324;SDS011;67584;51.400;6.692;2023-07-31T07:46:33;5.82;;;3.55;;
78324;SDS011;67584;51.400;6.692;2023-07-31T07:48:59;6.78;;;3.28;;
78324;SDS011;67584;51.400;6.692;2023-07-31T07:51:25;4.55;;;2.90;;
78324;SDS011;67584;51.400;6.692;2023-07-31T07:53:50;5.50;;;3.20;;
78324;SDS011;67584;51.400;6.692;2023-07-31T07:56:16;5.28;;;4.18;;
78324;SDS011;67584;51.400;6.692;2023-07-31T07:58:42;7.10;;;3.70;;
78324;SDS011;67584;51.400;6.692;2023-07-31T08:01:07;6.15;;;3.42;;
78324;SDS011;67584;51.400;6.692;2023-07-31T08:03:33;5.50;;;3.30;;
78324;SDS011;67584;51.400;6.692;2023-07-31T08:05:59;4.30;;;2.70;;
78324;SDS011;67584;51.400;6.692;2023-07-31T08:08:26;6.00;;;3.25;;
78324;SDS011;67584;51.400;6.692;2023-07-31T08:10:51;8.05;;;3.28;;
78324;SDS011;67584;51.400;6.692;2023-07-31T08:13:17;5.45;;;3.28;;
78324;SDS011;67584;51.400;6.692;2023-07-31T08:15:43;8.68;;;3.63;;
78324;SDS011;67584;51.400;6.692;2023-07-31T08:18:09;5.60;;;3.10;;
78324;SDS011;67584;51.400;6.692;2023-07-31T08:20:36;5.53;;;2.65;;
78324;SDS011;67584;51.400;6.692;2023-07-31T08:23:02;4.63;;;2.53;;
78324;SDS011;67584;51.400;6.692;2023-07-31T08:25:28;7.13;;;2.75;;
78324;SDS011;67584;51.400;6.692;2023-07-31T08:27:54;3.95;;;2.50;;
78324;SDS011;67584;51.400;6.692;2023-07-31T08:30:19;3.55;;;2.42;;
78324;SDS011;67584;51.400;6.692;2023-07-31T08:32:45;4.35;;;2.78;;
78324;SDS011;67584;51.400;6.692;2023-07-31T08:35:10;4.35;;;3.10;;
78324;SDS011;67584;51.400;6.692;2023-07-31T08:37:37;7.05;;;3.80;;
78324;SDS011;67584;51.400;6.692;2023-07-31T08:40:03;4.68;;;3.13;;
78324;SDS011;67584;51.400;6.692;2023-07-31T08:42:30;5.38;;;2.67;;
78324;SDS011;67584;51.400;6.692;2023-07-31T08:44:56;4.88;;;2.80;;
78324;SDS011;67584;51.400;6.692;2023-07-31T08:47:22;4.88;;;3.00;;
78324;SDS011;67584;51.400;6.692;2023-07-31T08:49:49;4.85;;;2.70;;
78324;SDS011;67584;51.400;6.692;2023-07-31T08:52:16;4.43;;;2.28;;
78324;SDS011;67584;51.400;6.692;2023-07-31T08:54:42;6.05;;;4.00;;
78324;SDS011;67584;51.400;6.692;2023-07-31T08:57:07;13.05;;;4.65;;
78324;SDS011;67584;51.400;6.692;2023-07-31T08:59:35;9.30;;;5.28;;
78324;SDS011;67584;51.400;6.692;2023-07-31T09:02:07;6.68;;;4.75;;
78324;SDS011;67584;51.400;6.692;2023-07-31T09:04:34;6.28;;;4.18;;
78324;SDS011;67584;51.400;6.692;2023-07-31T09:07:00;4.68;;;3.22;;
78324;SDS011;67584;51.400;6.692;2023-07-31T09:09:29;6.28;;;4.10;;
78324;SDS011;67584;51.400;6.692;2023-07-31T09:11:56;5.68;;;3.40;;
78324;SDS011;67584;51.400;6.692;2023-07-31T09:14:22;6.18;;;3.50;;
78324;SDS011;67584;51.400;6.692;2023-07-31T09:16:57;4.15;;;2.90;;
78324;SDS011;67584;51.400;6.692;2023-07-31T09:19:28;6.65;;;4.00;;
78324;SDS011;67584;51.400;6.692;2023-07-31T09:21:59;3.63;;;2.70;;
78324;SDS011;67584;51.400;6.692;2023-07-31T09:24:29;6.40;;;3.10;;
78324;SDS011;67584;51.400;6.692;2023-07-31T09:26:57;5.88;;;3.42;;
78324;SDS011;67584;51.400;6.692;2023-07-31T09:29:24;4.38;;;2.72;;
78324;SDS011;67584;51.400;6.692;2023-07-31T09:31:52;4.57;;;2.58;;
78324;SDS011;67584;51.400;6.692;2023-07-31T09:34:19;4.57;;;3.03;;
78324;SDS011;67584;51.400;6.692;2023-07-31T09:36:49;3.78;;;2.80;;
78324;SDS011;67584;51.400;6.692;2023-07-31T09:39:16;3.83;;;2.67;;
78324;SDS011;67584;51.400;6.692;2023-07-31T09:41:43;3.65;;;2.83;;
78324;SDS011;67584;51.400;6.692;2023-07-31T09:44:10;4.55;;;2.60;;
78324;SDS011;67584;51.400;6.692;2023-07-31T09:46:36;3.83;;;2.67;;
78324;SDS011;67584;51.400;6.692;2023-07-31T09:49:12;3.80;;;2.88;;
78324;SDS011;67584;51.400;6.692;2023-07-31T09:51:40;3.92;;;2.55;;
78324;SDS011;67584;51.400;6.692;2023-07-31T09:56:45;5.00;;;2.80;;
78324;SDS011;67584;51.400;6.692;2023-07-31T09:59:14;3.60;;;2.65;;
78324;SDS011;67584;51.400;6.692;2023-07-31T10:01:41;4.28;;;2.85;;
78324;SDS011;67584;51.400;6.692;2023-07-31T10:04:08;3.90;;;2.65;;
78324;SDS011;67584;51.400;6.692;2023-07-31T10:06:35;5.15;;;3.03;;
78324;SDS011;67584;51.400;6.692;2023-07-31T10:09:02;4.20;;;3.30;;
78324;SDS011;67584;51.400;6.692;2023-07-31T10:11:30;5.63;;;3.40;;
78324;SDS011;67584;51.400;6.692;2023-07-31T10:14:03;4.57;;;3.22;;
78324;SDS011;67584;51.400;6.692;2023-07-31T10:16:30;4.47;;;2.90;;
78324;SDS011;67584;51.400;6.692;2023-07-31T10:18:57;5.10;;;2.92;;
78324;SDS011;67584;51.400;6.692;2023-07-31T10:21:24;8.07;;;4.18;;
78324;SDS011;67584;51.400;6.692;2023-07-31T10:23:50;4.45;;;3.08;;
78324;SDS011;67584;51.400;6.692;2023-07-31T10:26:16;5.00;;;3.67;;
78324;SDS011;67584;51.400;6.692;2023-07-31T10:28:44;5.85;;;3.10;;
78324;SDS011;67584;51.400;6.692;2023-07-31T10:31:11;5.05;;;2.58;;
78324;SDS011;67584;51.400;6.692;2023-07-31T10:33:37;4.68;;;2.78;;
78324;SDS011;67584;51.400;6.692;2023-07-31T10:36:13;4.32;;;2.83;;
78324;SDS011;67584;51.400;6.692;2023-07-31T10:38:39;4.00;;;2.75;;
78324;SDS011;67584;51.400;6.692;2023-07-31T10:41:09;4.97;;;3.40;;
78324;SDS011;67584;51.400;6.692;2023-07-31T10:43:36;4.18;;;3.13;;
78324;SDS011;67584;51.400;6.692;2023-07-31T10:46:12;8.90;;;4.43;;
78324;SDS011;67584;51.400;6.692;2023-07-31T10:48:39;5.78;;;2.97;;
78324;SDS011;67584;51.400;6.692;2023-07-31T10:51:10;5.32;;;3.20;;
78324;SDS011;67584;51.400;6.692;2023-07-31T10:56:10;8.05;;;4.15;;
78324;SDS011;67584;51.400;6.692;2023-07-31T10:58:43;4.03;;;2.60;;
78324;SDS011;67584;51.400;6.692;2023-07-31T11:01:11;5.05;;;3.22;;
78324;SDS011;67584;51.400;6.692;2023-07-31T11:03:47;5.03;;;2.97;;
78324;SDS011;67584;51.400;6.692;2023-07-31T11:06:14;6.32;;;3.20;;
78324;SDS011;67584;51.400;6.692;2023-07-31T11:08:42;3.97;;;2.95;;
78324;SDS011;67584;51.400;6.692;2023-07-31T11:11:15;5.00;;;2.80;;
78324;SDS011;67584;51.400;6.692;2023-07-31T11:13:44;4.05;;;3.05;;
78324;SDS011;67584;51.400;6.692;2023-07-31T11:16:10;3.40;;;2.47;;
78324;SDS011;67584;51.400;6.692;2023-07-31T11:18:40;3.33;;;2.67;;
78324;SDS011;67584;51.400;6.692;2023-07-31T11:21:08;6.65;;;3.05;;
78324;SDS011;67584;51.400;6.692;2023-07-31T11:23:38;3.22;;;2.65;;
78324;SDS011;67584;51.400;6.692;2023-07-31T11:26:04;4.43;;;2.75;;
78324;SDS011;67584;51.400;6.692;2023-07-31T11:28:32;5.47;;;2.78;;
78324;SDS011;67584;51.400;6.692;2023-07-31T11:30:59;4.40;;;2.70;;
78324;SDS011;67584;51.400;6.692;2023-07-31T11:33:25;5.78;;;2.75;;
78324;SDS011;67584;51.400;6.692;2023-07-31T11:35:51;4.50;;;2.50;;
78324;SDS011;67584;51.400;6.692;2023-07-31T11:38:21;3.80;;;2.70;;
78324;SDS011;67584;51.400;6.692;2023-07-31T11:40:48;3.80;;;2.88;;
78324;SDS011;67584;51.400;6.692;2023-07-31T11:43:14;4.80;;;3.10;;
78324;SDS011;67584;51.400;6.692;2023-07-31T11:45:45;3.70;;;2.72;;
78324;SDS011;67584;51.400;6.692;2023-07-31T11:48:23;4.78;;;2.30;;
78324;SDS011;67584;51.400;6.692;2023-07-31T11:50:53;5.05;;;2.72;;
78324;SDS011;67584;51.400;6.692;2023-07-31T11:55:59;3.50;;;2.38;;
78324;SDS011;67584;51.400;6.692;2023-07-31T11:58:27;3.88;;;2.83;;
78324;SDS011;67584;51.400;6.692;2023-07-31T12:00:54;3.67;;;2.22;;
78324;SDS011;67584;51.400;6.692;2023-07-31T12:03:21;4.05;;;2.33;;
78324;SDS011;67584;51.400;6.692;2023-07-31T12:05:47;4.63;;;2.67;;
78324;SDS011;67584;51.400;6.692;2023-07-31T12:08:13;3.72;;;2.28;;
78324;SDS011;67584;51.400;6.692;2023-07-31T12:10:39;2.88;;;2.13;;
78324;SDS011;67584;51.400;6.692;2023-07-31T12:13:12;4.43;;;2.80;;
78324;SDS011;67584;51.400;6.692;2023-07-31T12:15:53;3.85;;;2.63;;
78324;SDS011;67584;51.400;6.692;2023-07-31T12:18:20;3.95;;;3.05;;
78324;SDS011;67584;51.400;6.692;2023-07-31T12:20:47;5.00;;;2.60;;
78324;SDS011;67584;51.400;6.692;2023-07-31T12:23:17;4.10;;;2.85;;
78324;SDS011;67584;51.400;6.692;2023-07-31T12:26:06;3.58;;;2.83;;
78324;SDS011;67584;51.400;6.692;2023-07-31T12:28:46;3.45;;;2.47;;
78324;SDS011;67584;51.400;6.692;2023-07-31T12:31:14;3.33;;;2.20;;
78324;SDS011;67584;51.400;6.692;2023-07-31T12:33:44;3.83;;;2.60;;
78324;SDS011;67584;51.400;6.692;2023-07-31T12:36:15;3.47;;;2.70;;
78324;SDS011;67584;51.400;6.692;2023-07-31T12:38:43;3.58;;;2.80;;
78324;SDS011;67584;51.400;6.692;2023-07-31T12:41:10;3.90;;;2.20;;
78324;SDS011;67584;51.400;6.692;2023-07-31T12:43:36;5.13;;;2.10;;
78324;SDS011;67584;51.400;6.692;2023-07-31T12:46:02;3.70;;;2.15;;
78324;SDS011;67584;51.400;6.692;2023-07-31T12:48:29;3.53;;;2.25;;
78324;SDS011;67584;51.400;6.692;2023-07-31T12:50:55;3.70;;;2.72;;
78324;SDS011;67584;51.400;6.692;2023-07-31T12:53:21;4.13;;;2.30;;
78324;SDS011;67584;51.400;6.692;2023-07-31T12:55:46;4.30;;;2.65;;
78324;SDS011;67584;51.400;6.692;2023-07-31T12:58:12;3.45;;;2.15;;
78324;SDS011;67584;51.400;6.692;2023-07-31T13:00:38;3.55;;;2.47;;
78324;SDS011;67584;51.400;6.692;2023-07-31T13:03:03;4.10;;;2.70;;
78324;SDS011;67584;51.400;6.692;2023-07-31T13:05:29;3.17;;;2.63;;
78324;SDS011;67584;51.400;6.692;2023-07-31T13:07:55;5.13;;;2.53;;
78324;SDS011;67584;51.400;6.692;2023-07-31T13:10:21;3.35;;;2.42;;
78324;SDS011;67584;51.400;6.692;2023-07-31T13:12:48;4.07;;;2.60;;
78324;SDS011;67584;51.400;6.692;2023-07-31T13:15:14;3.45;;;2.58;;
78324;SDS011;67584;51.400;6.692;2023-07-31T13:17:39;4.22;;;2.75;;
78324;SDS011;67584;51.400;6.692;2023-07-31T13:20:05;5.45;;;2.95;;
78324;SDS011;67584;51.400;6.692;2023-07-31T13:22:32;7.07;;;3.47;;
78324;SDS011;67584;51.400;6.692;2023-07-31T13:24:57;5.13;;;3.10;;
78324;SDS011;67584;51.400;6.692;2023-07-31T13:27:23;4.93;;;2.67;;
78324;SDS011;67584;51.400;6.692;2023-07-31T13:29:49;4.38;;;2.25;;
78324;SDS011;67584;51.400;6.692;2023-07-31T13:32:18;4.82;;;3.08;;
78324;SDS011;67584;51.400;6.692;2023-07-31T13:34:45;5.80;;;3.42;;
78324;SDS011;67584;51.400;6.692;2023-07-31T13:37:11;4.10;;;2.63;;
78324;SDS011;67584;51.400;6.692;2023-07-31T13:39:38;3.53;;;2.78;;
78324;SDS011;67584;51.400;6.692;2023-07-31T13:42:04;4.30;;;2.70;;
78324;SDS011;67584;51.400;6.692;2023-07-31T13:44:34;4.15;;;2.63;;
78324;SDS011;67584;51.400;6.692;2023-07-31T13:47:00;3.72;;;2.72;;
78324;SDS011;67584;51.400;6.692;2023-07-31T13:49:26;4.07;;;2.78;;
78324;SDS011;67584;51.400;6.692;2023-07-31T13:51:52;3.15;;;2.17;;
78324;SDS011;67584;51.400;6.692;2023-07-31T13:54:17;3.70;;;2.88;;
78324;SDS011;67584;51.400;6.692;2023-07-31T13:56:43;3.75;;;2.50;;
78324;SDS011;67584;51.400;6.692;2023-07-31T13:59:09;4.57;;;2.90;;
78324;SDS011;67584;51.400;6.692;2023-07-31T14:01:35;6.82;;;3.83;;
78324;SDS011;67584;51.400;6.692;2023-07-31T14:04:01;8.82;;;3.97;;
78324;SDS011;67584;51.400;6.692;2023-07-31T14:06:27;4.72;;;3.53;;
78324;SDS011;67584;51.400;6.692;2023-07-31T14:08:53;4.45;;;3.20;;
78324;SDS011;67584;51.400;6.692;2023-07-31T14:11:18;5.43;;;3.35;;
78324;SDS011;67584;51.400;6.692;2023-07-31T14:13:44;7.47;;;2.97;;
78324;SDS011;67584;51.400;6.692;2023-07-31T14:16:10;5.65;;;2.83;;
78324;SDS011;67584;51.400;6.692;2023-07-31T14:18:35;4.85;;;3.25;;
78324;SDS011;67584;51.400;6.692;2023-07-31T14:21:01;5.18;;;3.08;;
78324;SDS011;67584;51.400;6.692;2023-07-31T14:23:26;5.32;;;3.20;;
78324;SDS011;67584;51.400;6.692;2023-07-31T14:25:52;5.63;;;3.05;;
78324;SDS011;67584;51.400;6.692;2023-07-31T14:28:18;4.65;;;3.05;;
78324;SDS011;67584;51.400;6.692;2023-07-31T14:30:43;5.85;;;2.85;;
78324;SDS011;67584;51.400;6.692;2023-07-31T14:33:09;5.28;;;3.10;;
78324;SDS011;67584;51.400;6.692;2023-07-31T14:35:34;5.72;;;2.95;;
78324;SDS011;67584;51.400;6.692;2023-07-31T14:38:00;4.28;;;2.63;;
78324;SDS011;67584;51.400;6.692;2023-07-31T14:40:26;4.75;;;3.13;;
78324;SDS011;67584;51.400;6.692;2023-07-31T14:42:52;5.60;;;3.42;;
78324;SDS011;67584;51.400;6.692;2023-07-31T14:45:18;4.43;;;2.80;;
78324;SDS011;67584;51.400;6.692;2023-07-31T14:47:43;3.80;;;3.10;;
78324;SDS011;67584;51.400;6.692;2023-07-31T14:50:09;5.13;;;3.15;;
78324;SDS011;67584;51.400;6.692;2023-07-31T14:52:35;6.50;;;3.17;;
78324;SDS011;67584;51.400;6.692;2023-07-31T14:55:01;5.15;;;3.17;;
78324;SDS011;67584;51.400;6.692;2023-07-31T14:57:26;6.13;;;2.90;;
78324;SDS011;67584;51.400;6.692;2023-07-31T14:59:52;6.55;;;3.20;;